Terminal Aerodrome Forecast
Issued by NWS

Home | Current Version | Previous Version | Text Only | Print | Product List | Glossary On
Versions: 1 2 3 4 5 6 7 8 9 10 11 12 13 14 15 16 17
000
FTUS43 KGRR 312300
TAFMKG
TAF
KMKG 312340Z 0100/0124 22005KT P6SM FEW150
     FM010800 VRB03KT 4SM BR SKC
     FM011000 VRB03KT 1 1/2SM BR SKC
     FM011400 24005KT P6SM FEW100=

USA.gov is the U.S. government's official web portal to all federal, state and local government web resources and services.